LFLL Airport Information

Runway Information
Runway 18L Length 8760 ft width 148 ft
Elevation 780 ft Threshold 0 ft Heading 175
Runway 36R Length 8760 ft Width 148 ft
Elevation 821 ft Threshold 0 ft Heading 355
Runway 18R Length 13124 ft width 148 ft
Elevation 758 ft Threshold 0 ft Heading 175
Runway 36L Length 13124 ft Width 148 ft
Elevation 813 ft Threshold 0 ft Heading 355
Airport Frequencies
Type A/D Name Lyon appro Frequency 136.075 MHZ
Type ATIS Name ATIS Frequency 126.175 MHZ
Type GND Name GND Frequency 121.825 MHZ
Type INFO Name INFO Frequency 135.2 MHZ
Type PFLT Name PREFLIGHT Frequency 121.7 MHZ
Type TWR Name TWR Frequency 120.45 MHZ
Airport Navaids
Type VOR-DME Name Lyon/Saint Exupery Frequency 114750 KHZ
Airport Weather Information & NOTAM
ADDS - METARS form results

(0907 UTC 06 April 2020)
Data provider http://aviationweather.gov/metar/data/
 
METAR text: LFLL 060900Z AUTO 19015KT CAVOK 16/01 Q1024 TEMPO 18015G28KT
Conditions at: LFLL (LYON/SATOLAS , FR) observed 0900 UTC 06 April 2020
Temperature: 16.0°C (61°F)
Dewpoint: 1.0°C (34°F) [RH = 36%]
Pressure (altimeter): 30.24 inches Hg (1024.0 mb)
Winds: from the S (190 degrees) at 17 MPH (15 knots; 7.7 m/s)
Visibility: 6 or more miles (10+ km)
Ceiling: ceiling and visibility are OK
Clouds: unknown
Weather: no significant weather observed at this time

METAR text: LFLL 060830Z AUTO 19012KT CAVOK 16/01 Q1024 TEMPO 18015G28KT
Conditions at: LFLL (LYON/SATOLAS , FR) observed 0830 UTC 06 April 2020
Temperature: 16.0°C (61°F)
Dewpoint: 1.0°C (34°F) [RH = 36%]
Pressure (altimeter): 30.24 inches Hg (1024.0 mb)
Winds: from the S (190 degrees) at 14 MPH (12 knots; 6.2 m/s)
Visibility: 6 or more miles (10+ km)
Ceiling: ceiling and visibility are OK
Clouds: unknown
Weather: no significant weather observed at this time

Forecast for: LFLL (LYON/SATOLAS , FR)
Text: TAF LFLL 060500Z 0606/0712 17012KT CAVOK
Forecast period: 0600 to 2200 UTC 06 April 2020
Forecast type: FROM: standard forecast or significant change
Winds: from the S (170 degrees) at 14 MPH (12 knots; 6.2 m/s)
Visibility: 6 or more miles 10+ km)
Ceiling: unknown
Clouds: missing
Weather: NSW  (no significant weather)
Text: PROB40
Forecast period: 0900 to 1500 UTC 06 April 2020
Forecast type: TEMPORARY: The following changes expected for less than half the time period
Winds: from the S (180 degrees) at 17 MPH (15 knots; 7.7 m/s)
gusting to 32 MPH (28 knots; 14.4 m/s)
Visibility: missing
Ceiling: unknown
Clouds: missing
Weather: no significant weather forecast for this period
Text: TEMPO 0609/0615 18015G28KT
Forecast period: 2200 UTC 06 April 2020 to 1200 UTC 07 April 2020
Forecast type: BECOMING: Conditions expected to become as follows by 0000 UTC 07 April 2020
Winds: variable direction winds at 2 MPH (2 knots; 1.0 m/s)
Visibility: 6 or more miles 10+ km)
Ceiling: unknown
Clouds: missing
Weather: NSW  (no significant weather)